Time,TemperatureF,DewpointF,PressureIn,WindDirection,WindDirectionDegrees,WindSpeedMPH,WindSpeedGustMPH,Humidity,HourlyPrecipIn,Conditions,Clouds,dailyrainin,SolarRadiationWatts/m^2,SoftwareType,DateUTC
2013-08-09 00:01:00,63.0,45.0,-100.00,WSW,238,4.0,6.0,52,0.00,,,0.00,0.000000,,2013-08-09 07:01:00,
2013-08-09 00:12:00,63.0,45.0,-100.00,WSW,238,4.0,6.0,52,0.00,,,0.00,0.000000,,2013-08-09 07:12:00,
2013-08-09 00:33:00,65.0,45.0,-100.00,SW,215,5.0,10.0,49,0.00,,,0.00,0.000000,,2013-08-09 07:33:00,
2013-08-09 00:43:00,65.0,45.0,-100.00,SW,215,5.0,10.0,49,0.00,,,0.00,0.000000,,2013-08-09 07:43:00,
2013-08-09 00:53:00,65.0,45.0,-100.00,SW,215,5.0,10.0,49,0.00,,,0.00,0.000000,,2013-08-09 07:53:00,
2013-08-09 01:02:00,65.0,45.0,-100.00,SW,215,5.0,10.0,49,0.00,,,0.00,0.000000,,2013-08-09 08:02:00,
2013-08-09 01:11:00,65.0,45.0,-100.00,SW,215,5.0,10.0,49,0.00,,,0.00,0.000000,,2013-08-09 08:11:00,
2013-08-09 01:43:00,65.0,46.0,-100.00,WSW,237,5.0,12.0,51,0.00,,,0.00,0.000000,,2013-08-09 08:43:00,
2013-08-09 01:53:00,65.0,46.0,-100.00,WSW,237,5.0,12.0,51,0.00,,,0.00,0.000000,,2013-08-09 08:53:00,
2013-08-09 02:02:00,65.0,46.0,-100.00,WSW,237,5.0,12.0,51,0.00,,,0.00,0.000000,,2013-08-09 09:02:00,
2013-08-09 02:12:00,65.0,46.0,-100.00,WSW,237,5.0,12.0,51,0.00,,,0.00,0.000000,,2013-08-09 09:12:00,
2013-08-09 02:32:00,64.0,47.0,-100.00,West,267,9.0,16.0,54,0.00,,,0.00,0.000000,,2013-08-09 09:32:00,
2013-08-09 02:43:00,64.0,47.0,-100.00,West,267,9.0,16.0,54,0.00,,,0.00,0.000000,,2013-08-09 09:43:00,
2013-08-09 02:52:00,64.0,47.0,-100.00,West,267,9.0,16.0,54,0.00,,,0.00,0.000000,,2013-08-09 09:52:00,
2013-08-09 03:01:00,64.0,47.0,-100.00,West,267,9.0,16.0,54,0.00,,,0.00,0.000000,,2013-08-09 10:01:00,
2013-08-09 03:12:00,64.0,47.0,-100.00,West,267,9.0,16.0,54,0.00,,,0.00,0.000000,,2013-08-09 10:12:00,
2013-08-09 03:32:00,65.0,44.0,-100.00,WSW,257,7.0,18.0,46,0.00,,,-99.99,0.000000,,2013-08-09 10:32:00,
2013-08-09 03:43:00,65.0,44.0,-100.00,WSW,257,7.0,18.0,46,0.00,,,-99.99,0.000000,,2013-08-09 10:43:00,
2013-08-09 03:53:00,65.0,44.0,-100.00,WSW,257,7.0,18.0,46,0.00,,,-99.99,0.000000,,2013-08-09 10:53:00,
2013-08-09 04:01:00,65.0,44.0,-100.00,WSW,257,7.0,18.0,46,0.00,,,-99.99,0.000000,,2013-08-09 11:01:00,
2013-08-09 04:11:00,65.0,44.0,-100.00,WSW,257,7.0,18.0,46,0.00,,,-99.99,0.000000,,2013-08-09 11:11:00,
2013-08-09 04:43:00,63.0,45.0,-100.00,South,177,5.0,9.0,52,0.00,,,0.00,0.000000,,2013-08-09 11:43:00,
2013-08-09 04:53:00,63.0,45.0,-100.00,South,177,5.0,9.0,52,0.00,,,0.00,0.000000,,2013-08-09 11:53:00,
2013-08-09 05:02:00,63.0,45.0,-100.00,South,177,5.0,9.0,52,0.00,,,0.00,0.000000,,2013-08-09 12:02:00,
2013-08-09 05:12:00,63.0,45.0,-100.00,South,177,5.0,9.0,52,0.00,,,0.00,0.000000,,2013-08-09 12:12:00,
2013-08-09 05:43:00,61.0,46.0,-100.00,SSW,211,3.0,8.0,57,0.00,,,-99.99,0.000000,,2013-08-09 12:43:00,
2013-08-09 05:52:00,61.0,46.0,-100.00,SSW,211,3.0,8.0,57,0.00,,,-99.99,0.000000,,2013-08-09 12:52:00,
2013-08-09 06:01:00,61.0,46.0,-100.00,SSW,211,3.0,8.0,57,0.00,,,-99.99,0.000000,,2013-08-09 13:01:00,
2013-08-09 06:12:00,61.0,46.0,-100.00,SSW,211,3.0,8.0,57,0.00,,,-99.99,0.000000,,2013-08-09 13:12:00,
2013-08-09 06:43:00,59.0,45.0,-100.00,WSW,252,3.0,4.0,59,0.00,,,-99.99,0.000000,,2013-08-09 13:43:00,
2013-08-09 06:52:00,59.0,45.0,-100.00,WSW,252,3.0,4.0,59,0.00,,,-99.99,0.000000,,2013-08-09 13:52:00,
2013-08-09 07:02:00,59.0,45.0,-100.00,WSW,252,3.0,4.0,59,0.00,,,-99.99,0.000000,,2013-08-09 14:02:00,
2013-08-09 07:11:00,59.0,45.0,-100.00,WSW,252,3.0,4.0,59,0.00,,,-99.99,0.000000,,2013-08-09 14:11:00,
2013-08-09 07:43:00,58.0,46.0,-100.00,SSW,203,2.0,5.0,64,0.00,,,0.00,22.000000,,2013-08-09 14:43:00,
2013-08-09 07:53:00,58.0,46.0,-100.00,SSW,203,2.0,5.0,64,0.00,,,0.00,22.000000,,2013-08-09 14:53:00,
2013-08-09 08:01:00,58.0,46.0,-100.00,SSW,203,2.0,5.0,64,0.00,,,0.00,22.000000,,2013-08-09 15:01:00,
2013-08-09 08:11:00,58.0,46.0,-100.00,SSW,203,2.0,5.0,64,0.00,,,0.00,22.000000,,2013-08-09 15:11:00,
2013-08-09 08:44:00,62.0,49.0,-100.00,South,169,3.0,4.0,63,0.00,,,0.00,103.000000,,2013-08-09 15:44:00,
2013-08-09 08:53:00,62.0,49.0,-100.00,South,169,3.0,4.0,63,0.00,,,0.00,103.000000,,2013-08-09 15:53:00,
2013-08-09 09:01:00,62.0,49.0,-100.00,South,169,3.0,4.0,63,0.00,,,0.00,103.000000,,2013-08-09 16:01:00,
2013-08-09 09:11:00,62.0,49.0,-100.00,South,169,3.0,4.0,63,0.00,,,0.00,103.000000,,2013-08-09 16:11:00,
2013-08-09 09:53:00,69.0,48.0,-100.00,North,353,4.0,7.0,48,0.00,,,0.00,314.000000,,2013-08-09 16:53:00,
2013-08-09 10:02:00,69.0,48.0,-100.00,North,353,4.0,7.0,48,0.00,,,0.00,314.000000,,2013-08-09 17:02:00,
2013-08-09 10:11:00,69.0,48.0,-100.00,North,353,4.0,7.0,48,0.00,,,0.00,314.000000,,2013-08-09 17:11:00,
2013-08-09 10:43:00,74.0,47.0,-100.00,North,356,5.0,9.0,39,0.00,,,0.00,357.000000,,2013-08-09 17:43:00,
2013-08-09 10:52:00,74.0,47.0,-100.00,North,356,5.0,9.0,39,0.00,,,0.00,357.000000,,2013-08-09 17:52:00,
2013-08-09 11:01:00,74.0,47.0,-100.00,North,356,5.0,9.0,39,0.00,,,0.00,357.000000,,2013-08-09 18:01:00,
2013-08-09 11:11:00,74.0,47.0,-100.00,North,356,5.0,9.0,39,0.00,,,0.00,357.000000,,2013-08-09 18:11:00,
2013-08-09 11:43:00,78.0,47.0,-100.00,NE,49,5.0,11.0,34,0.00,,,0.00,725.000000,,2013-08-09 18:43:00,
2013-08-09 11:53:00,78.0,47.0,-100.00,NE,49,5.0,11.0,34,0.00,,,0.00,725.000000,,2013-08-09 18:53:00,
2013-08-09 12:02:00,78.0,47.0,-100.00,NE,49,5.0,11.0,34,0.00,,,0.00,725.000000,,2013-08-09 19:02:00,
2013-08-09 12:11:00,78.0,47.0,-100.00,NE,49,5.0,11.0,34,0.00,,,0.00,725.000000,,2013-08-09 19:11:00,
2013-08-09 12:43:00,81.0,47.0,-100.00,East,97,6.0,10.0,30,0.00,,,0.00,870.000000,,2013-08-09 19:43:00,
2013-08-09 12:52:00,81.0,47.0,-100.00,East,97,6.0,10.0,30,0.00,,,0.00,870.000000,,2013-08-09 19:52:00,
2013-08-09 13:02:00,81.0,47.0,-100.00,East,97,6.0,10.0,30,0.00,,,0.00,870.000000,,2013-08-09 20:02:00,
2013-08-09 13:11:00,81.0,47.0,-100.00,East,97,6.0,10.0,30,0.00,,,0.00,870.000000,,2013-08-09 20:11:00,
2013-08-09 14:43:00,81.0,43.0,-100.00,SE,132,5.0,9.0,26,-99.99,,,0.00,543.000000,,2013-08-09 21:43:00,
2013-08-09 14:52:00,81.0,43.0,-100.00,SE,132,5.0,9.0,26,-99.99,,,0.00,543.000000,,2013-08-09 21:52:00,
2013-08-09 15:01:00,81.0,43.0,-100.00,SE,132,5.0,9.0,26,-99.99,,,0.00,543.000000,,2013-08-09 22:01:00,
2013-08-09 15:11:00,81.0,43.0,-100.00,SE,132,5.0,9.0,26,-99.99,,,0.00,543.000000,,2013-08-09 22:11:00,
2013-08-09 16:01:00,70.0,55.0,-100.00,SSW,207,9.0,29.0,59,0.00,,,0.00,393.000000,,2013-08-09 23:01:00,
2013-08-09 16:11:00,70.0,55.0,-100.00,SSW,207,9.0,29.0,59,0.00,,,0.00,393.000000,,2013-08-09 23:11:00,
2013-08-09 16:43:00,69.0,49.0,-100.00,SW,231,10.0,20.0,49,0.01,,,0.01,235.000000,,2013-08-09 23:43:00,
2013-08-09 16:52:00,69.0,49.0,-100.00,SW,231,10.0,20.0,49,0.01,,,0.01,235.000000,,2013-08-09 23:52:00,
2013-08-09 17:01:00,69.0,49.0,-100.00,SW,231,10.0,20.0,49,0.01,,,0.01,235.000000,,2013-08-10 00:01:00,
2013-08-09 17:11:00,69.0,49.0,-100.00,SW,231,10.0,20.0,49,0.01,,,0.01,235.000000,,2013-08-10 00:11:00,
2013-08-09 17:43:00,65.0,53.0,-100.00,WSW,237,9.0,23.0,66,0.01,,,0.02,250.000000,,2013-08-10 00:43:00,
2013-08-09 17:52:00,65.0,53.0,-100.00,WSW,237,9.0,23.0,66,0.01,,,0.02,250.000000,,2013-08-10 00:52:00,
2013-08-09 18:01:00,65.0,53.0,-100.00,WSW,237,9.0,23.0,66,0.01,,,0.02,250.000000,,2013-08-10 01:01:00,
2013-08-09 18:11:00,65.0,53.0,-100.00,WSW,237,9.0,23.0,66,0.01,,,0.02,250.000000,,2013-08-10 01:11:00,
2013-08-09 18:42:00,73.0,47.0,-100.00,WNW,291,4.0,12.0,39,0.00,,,0.02,425.000000,,2013-08-10 01:42:00,
2013-08-09 18:52:00,73.0,47.0,-100.00,WNW,291,4.0,12.0,39,0.00,,,0.02,425.000000,,2013-08-10 01:52:00,
2013-08-09 19:32:00,66.0,52.0,-100.00,NW,311,4.0,11.0,60,-99.99,,,0.02,160.000000,,2013-08-10 02:32:00,
2013-08-09 19:42:00,66.0,52.0,-100.00,NW,311,4.0,11.0,60,-99.99,,,0.02,160.000000,,2013-08-10 02:42:00,
2013-08-09 19:52:00,66.0,52.0,-100.00,NW,311,4.0,11.0,60,-99.99,,,0.02,160.000000,,2013-08-10 02:52:00,
2013-08-09 20:01:00,66.0,52.0,-100.00,NW,311,4.0,11.0,60,-99.99,,,0.02,160.000000,,2013-08-10 03:01:00,
2013-08-09 20:11:00,66.0,52.0,-100.00,NW,311,4.0,11.0,60,-99.99,,,0.02,160.000000,,2013-08-10 03:11:00,
2013-08-09 20:32:00,60.0,49.0,-100.00,NNW,341,4.0,9.0,66,0.00,,,0.02,19.000000,,2013-08-10 03:32:00,
2013-08-09 20:42:00,60.0,49.0,-100.00,NNW,341,4.0,9.0,66,0.00,,,0.02,19.000000,,2013-08-10 03:42:00,
2013-08-09 20:52:00,60.0,49.0,-100.00,NNW,341,4.0,9.0,66,0.00,,,0.02,19.000000,,2013-08-10 03:52:00,
2013-08-09 21:01:00,60.0,49.0,-100.00,NNW,341,4.0,9.0,66,0.00,,,0.02,19.000000,,2013-08-10 04:01:00,
2013-08-09 21:11:00,60.0,49.0,-100.00,NNW,341,4.0,9.0,66,0.00,,,0.02,19.000000,,2013-08-10 04:11:00,
2013-08-09 21:32:00,56.0,49.0,-100.00,WNW,301,2.0,4.0,76,0.00,,,0.02,0.000000,,2013-08-10 04:32:00,
2013-08-09 21:43:00,56.0,49.0,-100.00,WNW,301,2.0,4.0,76,0.00,,,0.02,0.000000,,2013-08-10 04:43:00,
2013-08-09 21:53:00,56.0,49.0,-100.00,WNW,301,2.0,4.0,76,0.00,,,0.02,0.000000,,2013-08-10 04:53:00,
2013-08-09 22:02:00,56.0,49.0,-100.00,WNW,301,2.0,4.0,76,0.00,,,0.02,0.000000,,2013-08-10 05:02:00,
2013-08-09 22:11:00,56.0,49.0,-100.00,WNW,301,2.0,4.0,76,0.00,,,0.02,0.000000,,2013-08-10 05:11:00,
2013-08-09 22:43:00,56.0,50.0,-100.00,WSW,257,3.0,10.0,81,0.00,,,0.02,0.000000,,2013-08-10 05:43:00,
2013-08-09 22:52:00,56.0,50.0,-100.00,WSW,257,3.0,10.0,81,0.00,,,0.02,0.000000,,2013-08-10 05:52:00,
2013-08-09 23:02:00,56.0,50.0,-100.00,WSW,257,3.0,10.0,81,0.00,,,0.02,0.000000,,2013-08-10 06:02:00,
2013-08-09 23:11:00,56.0,50.0,-100.00,WSW,257,3.0,10.0,81,0.00,,,0.02,0.000000,,2013-08-10 06:11:00,
2013-08-09 23:44:00,54.0,48.0,-100.00,WSW,252,4.0,6.0,81,0.00,,,0.02,0.000000,,2013-08-10 06:44:00,
2013-08-09 23:53:00,54.0,48.0,-100.00,WSW,252,4.0,6.0,81,0.00,,,0.02,0.000000,,2013-08-10 06:53:00,